Agnew, Nebraska
Current Conditions -  °F | °C
As of 11:54 PM on Wednesday 28 Jan 2015 (Local Time) from KLNK Reporting Station
Overcast Overcast  
Wind Chill: 34°   Ceiling: 2400
Heat Index: 44°   Visibility: 8mi
Dew Point: 35°   Wind: 28mph
Humidity: 71%   Direction: 350°N
Pressure: 30"   Gusts: 45mph
Location:  40.9964°N, 96.8004°W
Report Text: KLNK 290554Z 35024G39KT 8SM OVC024 07/02 A3000 RMK AO2 PK WND 36039/0548 PRESRR SLP162 T00670017 10144 20067 401781006 53050
Loading
Personal Weather Stations






























Interactive Weather Map New forecast layout! Learn more

10-Day Weather Forecast

Advertisements
Track Severe Weather on mobile